F/V Renaissance II — FMEW — position and weather

sailwx.info

Track history (hours):
 
Tides and Currents Weather Stations Pressure Air Temp Water Temp Dewpoint Dewpoint Depression Visibility Wind Speed Wind Dir Waves Ship Positions

F/V Renaissance II

Last reported at 2014-Nov-28 03:33 UTC. Time now 2014-Nov-28 04:15 UTC.
Position N 46°29' W 001°49'.

Length 18 m.

Type: Fishing. MMSI: 228216600.

Date/timePositionNaut miles runAvg speedWind from/ knotsBaromVisibWave heightAir tempDewpointWater temp
2014-Nov-28 03:33N 46°29' W 001°49'2 1.9
2014-Nov-28 02:33N 46°30' W 001°47'0 0.0
2014-Nov-28 01:33N 46°30' W 001°47'0 0.0
2014-Nov-28 00:33N 46°30' W 001°47'0 0.0
2014-Nov-27 23:33N 46°30' W 001°47'0 0.0
2014-Nov-27 22:33N 46°30' W 001°47'0 0.0
2014-Nov-27 21:33N 46°30' W 001°47'0 0.0
2014-Nov-27 20:33N 46°30' W 001°47'0 0.0
2014-Nov-27 19:33N 46°30' W 001°47'0 0.0
2014-Nov-27 18:33N 46°30' W 001°47'2 1.5
2014-Nov-27 17:33N 46°28' W 001°47'9 8.6
2014-Nov-27 16:29N 46°28' W 002°01'10 1.0
2014-Nov-27 06:13N 46°24' W 002°14'6 9.1
2014-Nov-27 05:33N 46°25' W 002°06'9 9.1
2014-Nov-27 04:33N 46°28' W 001°53'5 4.8
2014-Nov-27 03:33N 46°30' W 001°47'0 0.0
2014-Nov-27 02:33N 46°30' W 001°47'0 0.0
2014-Nov-27 01:33N 46°30' W 001°47'0 0.0
2014-Nov-27 00:33N 46°30' W 001°47'0 0.0
2014-Nov-26 23:33N 46°30' W 001°47'0 0.0
2014-Nov-26 22:33N 46°30' W 001°47'0 0.0
2014-Nov-26 21:33N 46°30' W 001°47'0 0.0
2014-Nov-26 20:33N 46°30' W 001°47'0 0.0
2014-Nov-26 19:33N 46°30' W 001°47'1 1.5
2014-Nov-26 18:33N 46°29' W 001°48'10 9.8
2014-Nov-26 17:33N 46°29' W 002°03'12 1.1
2014-Nov-26 06:18N 46°30' W 002°20'6 8.3
2014-Nov-26 05:33N 46°29' W 002°11'8 8.2
2014-Nov-26 04:33N 46°29' W 001°59'8 8.2
2014-Nov-26 03:33N 46°29' W 001°47'1 1.3
2014-Nov-26 02:33N 46°30' W 001°47'0 0.1
2014-Nov-26 01:33N 46°30' W 001°47'0 0.0
2014-Nov-26 00:33N 46°30' W 001°47'0 0.0
2014-Nov-25 23:33N 46°30' W 001°47'0 0.0
2014-Nov-25 22:33N 46°30' W 001°47'0 0.0
2014-Nov-25 21:33N 46°30' W 001°47'0 0.0
2014-Nov-25 20:33N 46°30' W 001°47'3 2.6
2014-Nov-25 19:33N 46°29' W 001°51'10 9.6
2014-Nov-25 18:33N 46°31' W 002°04'5 0.3
2014-Nov-25 05:29N 46°33' W 002°10'9 9.4
2014-Nov-25 04:33N 46°30' W 001°58'7 7.3
2014-Nov-25 03:33N 46°30' W 001°48'0 0.1
2014-Nov-25 02:33N 46°30' W 001°47'0 0.0
2014-Nov-25 01:33N 46°30' W 001°47'0 0.0
2014-Nov-25 00:33N 46°30' W 001°47'0 0.0
2014-Nov-24 23:33N 46°30' W 001°48'0 0.0
2014-Nov-24 22:33N 46°30' W 001°47'0 0.0
2014-Nov-24 21:33N 46°30' W 001°48'0 0.0
2014-Nov-24 20:33N 46°30' W 001°47'0 0.0
2014-Nov-24 19:33N 46°30' W 001°47'0 0.0
2014-Nov-24 18:33N 46°30' W 001°47'0 0.0
2014-Nov-24 17:33N 46°30' W 001°47'0 0.0
2014-Nov-24 16:33N 46°30' W 001°47'0 0.0
2014-Nov-24 15:33N 46°30' W 001°47'0 0.0
2014-Nov-24 14:33N 46°30' W 001°47'0 0.0
2014-Nov-24 13:34N 46°30' W 001°47'0 0.0
2014-Nov-24 12:33N 46°30' W 001°47'0 0.0
2014-Nov-24 11:33N 46°30' W 001°47'0 0.0
2014-Nov-24 10:33N 46°30' W 001°47'0 0.0
2014-Nov-24 09:33N 46°30' W 001°47'0 0.0
2014-Nov-24 08:33N 46°30' W 001°47'0 0.0
2014-Nov-24 07:33N 46°30' W 001°47'0 0.0
2014-Nov-23 07:33N 46°30' W 001°47'0 0.0
2014-Nov-22 19:33N 46°30' W 001°47'3 3.1
2014-Nov-22 18:33N 46°28' W 001°51'9 9.2
2014-Nov-22 17:33N 46°28' W 002°05'9 0.8
2014-Nov-22 06:29N 46°27' W 002°18'9 9.3
2014-Nov-22 05:33N 46°28' W 002°05'9 9.1
2014-Nov-22 04:33N 46°28' W 001°52'4 3.5
2014-Nov-22 03:33N 46°30' W 001°47'2 0.2
2014-Nov-21 18:33N 46°28' W 001°49'9 9.0
2014-Nov-21 17:33N 46°29' W 002°02'9 9.2
2014-Nov-21 16:32N 46°29' W 002°15'9 3.6
2014-Nov-21 14:06N 46°28' W 002°28'4 0.9
2014-Nov-21 09:16N 46°32' W 002°31'2 0.9
2014-Nov-21 07:25N 46°32' W 002°34'8 8.7
2014-Nov-21 06:33N 46°32' W 002°23'9 9.4
2014-Nov-21 05:33N 46°31' W 002°09'9 9.3
2014-Nov-21 04:33N 46°29' W 001°56'6 6.0
2014-Nov-21 03:33N 46°30' W 001°47'0 0.2
2014-Nov-21 02:33N 46°30' W 001°48'0 0.0
2014-Nov-21 01:33N 46°30' W 001°48'0 0.0
2014-Nov-21 00:33N 46°30' W 001°48'0 0.0
2014-Nov-20 23:33N 46°30' W 001°48'0 0.0
2014-Nov-20 22:33N 46°30' W 001°48'0 0.0
2014-Nov-20 21:33N 46°30' W 001°48'0 0.0
2014-Nov-20 20:33N 46°30' W 001°48'0 0.0
2014-Nov-20 19:33N 46°30' W 001°48'0 0.0
2014-Nov-20 18:33N 46°30' W 001°48'5 4.9
2014-Nov-20 17:33N 46°29' W 001°55'20 2.0
2014-Nov-20 07:22N 46°31' W 002°24'1 1.7
2014-Nov-20 06:33N 46°30' W 002°23'0 0.1
2014-Nov-20 03:33N 46°30' W 002°23'1 0.7
2014-Nov-20 02:21N 46°30' W 002°22'5 6.7
2014-Nov-20 01:33N 46°29' W 002°14'8 8.2
2014-Nov-20 00:34N 46°29' W 002°02'8 8.3
2014-Nov-19 23:33N 46°28' W 001°50'3 2.5
2014-Nov-19 22:33N 46°30' W 001°47'0 0.2
2014-Nov-19 21:33N 46°30' W 001°47'3 3.0
2014-Nov-19 20:33N 46°28' W 001°51'7 7.4
2014-Nov-19 19:33N 46°29' W 002°02'6 6.1
2014-Nov-19 18:33N 46°29' W 002°11'10 0.7
2014-Nov-19 03:25N 46°30' W 002°26'1 0.3
2014-Nov-19 01:32N 46°29' W 002°26'1 0.5
2014-Nov-19 00:23N 46°29' W 002°26'3 0.2
2014-Nov-18 10:08N 46°29' W 002°23'5 8.8
2014-Nov-18 09:33N 46°29' W 002°15'9 8.8
2014-Nov-18 08:33N 46°29' W 002°02'9 8.8
2014-Nov-18 07:33N 46°29' W 001°50'2 2.1
2014-Nov-18 06:33N 46°30' W 001°47'0 0.0
2014-Nov-18 05:33N 46°30' W 001°47'0 0.0
2014-Nov-18 04:33N 46°30' W 001°47'  
Track history (hours):
 
Tides and Currents Weather Stations Pressure Air Temp Water Temp Dewpoint Dewpoint Depression Visibility Wind Speed Wind Dir Waves Ship Positions

F/V Renaissance II

Last reported at 2014-Nov-28 03:33 UTC. Time now 2014-Nov-28 04:15 UTC.
Position N 46°29' W 001°49'.

Length 18 m.

Type: Fishing. MMSI: 228216600.

Date/timePositionNaut miles runAvg speedWind from/ knotsBaromVisibWave heightAir tempDewpointWater temp
2014-Nov-28 03:33N 46°29' W 001°49'2 1.9
2014-Nov-28 02:33N 46°30' W 001°47'0 0.0
2014-Nov-28 01:33N 46°30' W 001°47'0 0.0
2014-Nov-28 00:33N 46°30' W 001°47'0 0.0
2014-Nov-27 23:33N 46°30' W 001°47'0 0.0
2014-Nov-27 22:33N 46°30' W 001°47'0 0.0
2014-Nov-27 21:33N 46°30' W 001°47'0 0.0
2014-Nov-27 20:33N 46°30' W 001°47'0 0.0
2014-Nov-27 19:33N 46°30' W 001°47'0 0.0
2014-Nov-27 18:33N 46°30' W 001°47'2 1.5
2014-Nov-27 17:33N 46°28' W 001°47'9 8.6
2014-Nov-27 16:29N 46°28' W 002°01'10 1.0
2014-Nov-27 06:13N 46°24' W 002°14'6 9.1
2014-Nov-27 05:33N 46°25' W 002°06'9 9.1
2014-Nov-27 04:33N 46°28' W 001°53'5 4.8
2014-Nov-27 03:33N 46°30' W 001°47'0 0.0
2014-Nov-27 02:33N 46°30' W 001°47'0 0.0
2014-Nov-27 01:33N 46°30' W 001°47'0 0.0
2014-Nov-27 00:33N 46°30' W 001°47'0 0.0
2014-Nov-26 23:33N 46°30' W 001°47'0 0.0
2014-Nov-26 22:33N 46°30' W 001°47'0 0.0
2014-Nov-26 21:33N 46°30' W 001°47'0 0.0
2014-Nov-26 20:33N 46°30' W 001°47'0 0.0
2014-Nov-26 19:33N 46°30' W 001°47'1 1.5
2014-Nov-26 18:33N 46°29' W 001°48'10 9.8
2014-Nov-26 17:33N 46°29' W 002°03'12 1.1
2014-Nov-26 06:18N 46°30' W 002°20'6 8.3
2014-Nov-26 05:33N 46°29' W 002°11'8 8.2
2014-Nov-26 04:33N 46°29' W 001°59'8 8.2
2014-Nov-26 03:33N 46°29' W 001°47'1 1.3
2014-Nov-26 02:33N 46°30' W 001°47'0 0.1
2014-Nov-26 01:33N 46°30' W 001°47'0 0.0
2014-Nov-26 00:33N 46°30' W 001°47'0 0.0
2014-Nov-25 23:33N 46°30' W 001°47'0 0.0
2014-Nov-25 22:33N 46°30' W 001°47'0 0.0
2014-Nov-25 21:33N 46°30' W 001°47'0 0.0
2014-Nov-25 20:33N 46°30' W 001°47'3 2.6
2014-Nov-25 19:33N 46°29' W 001°51'10 9.6
2014-Nov-25 18:33N 46°31' W 002°04'5 0.3
2014-Nov-25 05:29N 46°33' W 002°10'9 9.4
2014-Nov-25 04:33N 46°30' W 001°58'7 7.3
2014-Nov-25 03:33N 46°30' W 001°48'0 0.1
2014-Nov-25 02:33N 46°30' W 001°47'0 0.0
2014-Nov-25 01:33N 46°30' W 001°47'0 0.0
2014-Nov-25 00:33N 46°30' W 001°47'0 0.0
2014-Nov-24 23:33N 46°30' W 001°48'0 0.0
2014-Nov-24 22:33N 46°30' W 001°47'0 0.0
2014-Nov-24 21:33N 46°30' W 001°48'0 0.0
2014-Nov-24 20:33N 46°30' W 001°47'0 0.0
2014-Nov-24 19:33N 46°30' W 001°47'0 0.0
2014-Nov-24 18:33N 46°30' W 001°47'0 0.0
2014-Nov-24 17:33N 46°30' W 001°47'0 0.0
2014-Nov-24 16:33N 46°30' W 001°47'0 0.0
2014-Nov-24 15:33N 46°30' W 001°47'0 0.0
2014-Nov-24 14:33N 46°30' W 001°47'0 0.0
2014-Nov-24 13:34N 46°30' W 001°47'0 0.0
2014-Nov-24 12:33N 46°30' W 001°47'0 0.0
2014-Nov-24 11:33N 46°30' W 001°47'0 0.0
2014-Nov-24 10:33N 46°30' W 001°47'0 0.0
2014-Nov-24 09:33N 46°30' W 001°47'0 0.0
2014-Nov-24 08:33N 46°30' W 001°47'0 0.0
2014-Nov-24 07:33N 46°30' W 001°47'0 0.0
2014-Nov-23 07:33N 46°30' W 001°47'0 0.0
2014-Nov-22 19:33N 46°30' W 001°47'3 3.1
2014-Nov-22 18:33N 46°28' W 001°51'9 9.2
2014-Nov-22 17:33N 46°28' W 002°05'9 0.8
2014-Nov-22 06:29N 46°27' W 002°18'9 9.3
2014-Nov-22 05:33N 46°28' W 002°05'9 9.1
2014-Nov-22 04:33N 46°28' W 001°52'4 3.5
2014-Nov-22 03:33N 46°30' W 001°47'2 0.2
2014-Nov-21 18:33N 46°28' W 001°49'9 9.0
2014-Nov-21 17:33N 46°29' W 002°02'9 9.2
2014-Nov-21 16:32N 46°29' W 002°15'9 3.6
2014-Nov-21 14:06N 46°28' W 002°28'4 0.9
2014-Nov-21 09:16N 46°32' W 002°31'2 0.9
2014-Nov-21 07:25N 46°32' W 002°34'8 8.7
2014-Nov-21 06:33N 46°32' W 002°23'9 9.4
2014-Nov-21 05:33N 46°31' W 002°09'9 9.3
2014-Nov-21 04:33N 46°29' W 001°56'6 6.0
2014-Nov-21 03:33N 46°30' W 001°47'0 0.2
2014-Nov-21 02:33N 46°30' W 001°48'0 0.0
2014-Nov-21 01:33N 46°30' W 001°48'0 0.0
2014-Nov-21 00:33N 46°30' W 001°48'0 0.0
2014-Nov-20 23:33N 46°30' W 001°48'0 0.0
2014-Nov-20 22:33N 46°30' W 001°48'0 0.0
2014-Nov-20 21:33N 46°30' W 001°48'0 0.0
2014-Nov-20 20:33N 46°30' W 001°48'0 0.0
2014-Nov-20 19:33N 46°30' W 001°48'0 0.0
2014-Nov-20 18:33N 46°30' W 001°48'5 4.9
2014-Nov-20 17:33N 46°29' W 001°55'20 2.0
2014-Nov-20 07:22N 46°31' W 002°24'1 1.7
2014-Nov-20 06:33N 46°30' W 002°23'0 0.1
2014-Nov-20 03:33N 46°30' W 002°23'1 0.7
2014-Nov-20 02:21N 46°30' W 002°22'5 6.7
2014-Nov-20 01:33N 46°29' W 002°14'8 8.2
2014-Nov-20 00:34N 46°29' W 002°02'8 8.3
2014-Nov-19 23:33N 46°28' W 001°50'3 2.5
2014-Nov-19 22:33N 46°30' W 001°47'0 0.2
2014-Nov-19 21:33N 46°30' W 001°47'3 3.0
2014-Nov-19 20:33N 46°28' W 001°51'7 7.4
2014-Nov-19 19:33N 46°29' W 002°02'6 6.1
2014-Nov-19 18:33N 46°29' W 002°11'10 0.7
2014-Nov-19 03:25N 46°30' W 002°26'1 0.3
2014-Nov-19 01:32N 46°29' W 002°26'1 0.5
2014-Nov-19 00:23N 46°29' W 002°26'3 0.2
2014-Nov-18 10:08N 46°29' W 002°23'5 8.8
2014-Nov-18 09:33N 46°29' W 002°15'9 8.8
2014-Nov-18 08:33N 46°29' W 002°02'9 8.8
2014-Nov-18 07:33N 46°29' W 001°50'2 2.1
2014-Nov-18 06:33N 46°30' W 001°47'0 0.0
2014-Nov-18 05:33N 46°30' W 001°47'0 0.0
2014-Nov-18 04:33N 46°30' W 001°47'  

Dump ship's entire track history